7NC7 weather

Lewis Airstrip
Walnut Cove, North Carolina, United States

Public forecast

Using degrees Fahrenheit for public forecast. Weather courtesy of forecast.io.

METAR (pilot weather report)

Closest report is Smith Reynolds Airport, 13.0 nm (24.1 km) S. Retrieved 2019/07/18 17:54 UTC (41 minutes ago):

KINT 181754Z 27006KT 10SM SCT090 31/21 A3001 RMK AO2 SLP148 T03060211 10311 20239 57005

TAF (pilot weather forecast)

Closest forecast is Smith Reynolds Airport, 13.0 nm (24.1 km) S. Retrieved 2019/07/18 18:42 UTC (0 seconds ago):

TAF KINT 181739Z 1818/1918 21008KT P6SM VCTS FEW045CB BKN090 TEMPO 1818/1821 VRB12G25KT 4SM TSRA BR BKN035CB FM182300 28005KT P6SM BKN100 BKN250 FM191600 32005KT P6SM SCT040 BKN150